sensor_id;sensor_type;location;lat;lon;timestamp;pressure;altitude;pressure_sealevel;temperature;humidity
50342;BME280;76053;42.682;23.286;2024-03-02T00:01:21;94209.91;;;24.05;64.41
50342;BME280;76053;42.682;23.286;2024-03-02T00:04:21;94213.84;;;24.04;64.34
50342;BME280;76053;42.682;23.286;2024-03-02T00:07:22;94218.53;;;24.03;64.58
50342;BME280;76053;42.682;23.286;2024-03-02T00:10:27;94223.22;;;24.03;64.81
50342;BME280;76053;42.682;23.286;2024-03-02T00:13:27;94221.25;;;24.03;64.52
50342;BME280;76053;42.682;23.286;2024-03-02T00:16:32;94215.44;;;24.01;64.58
50342;BME280;76053;42.682;23.286;2024-03-02T00:19:32;94220.91;;;24.01;64.59
50342;BME280;76053;42.682;23.286;2024-03-02T00:22:35;94214.66;;;24.01;64.65
50342;BME280;76053;42.682;23.286;2024-03-02T00:25:41;94219.38;;;24.00;64.61
50342;BME280;76053;42.682;23.286;2024-03-02T00:28:42;94211.63;;;23.99;64.68
50342;BME280;76053;42.682;23.286;2024-03-02T00:31:42;94206.94;;;23.99;64.70
50342;BME280;76053;42.682;23.286;2024-03-02T00:34:43;94219.03;;;23.98;64.77
50342;BME280;76053;42.682;23.286;2024-03-02T00:37:43;94217.84;;;23.99;64.84
50342;BME280;76053;42.682;23.286;2024-03-02T00:40:44;94199.94;;;23.98;65.08
50342;BME280;76053;42.682;23.286;2024-03-02T00:43:47;94212.03;;;23.97;64.94
50342;BME280;76053;42.682;23.286;2024-03-02T00:46:49;94204.63;;;23.98;64.90
50342;BME280;76053;42.682;23.286;2024-03-02T00:49:49;94207.03;;;23.96;65.03
50342;BME280;76053;42.682;23.286;2024-03-02T00:52:49;94204.72;;;23.94;64.88
50342;BME280;76053;42.682;23.286;2024-03-02T00:55:50;94201.97;;;23.94;65.07
50342;BME280;76053;42.682;23.286;2024-03-02T00:58:51;94210.59;;;23.93;65.06
50342;BME280;76053;42.682;23.286;2024-03-02T01:01:51;94211.78;;;23.92;65.17
50342;BME280;76053;42.682;23.286;2024-03-02T01:04:52;94211.78;;;23.92;65.18
50342;BME280;76053;42.682;23.286;2024-03-02T01:07:52;94217.69;;;23.90;65.28
50342;BME280;76053;42.682;23.286;2024-03-02T01:10:53;94215.38;;;23.89;65.03
50342;BME280;76053;42.682;23.286;2024-03-02T01:13:53;94216.56;;;23.88;65.37
50342;BME280;76053;42.682;23.286;2024-03-02T01:16:54;94205.63;;;23.88;65.31
50342;BME280;76053;42.682;23.286;2024-03-02T01:19:54;94197.84;;;23.86;65.41
50342;BME280;76053;42.682;23.286;2024-03-02T01:22:54;94192.41;;;23.86;65.31
50342;BME280;76053;42.682;23.286;2024-03-02T01:25:55;94183.88;;;23.84;65.46
50342;BME280;76053;42.682;23.286;2024-03-02T01:28:55;94185.84;;;23.84;65.47
50342;BME280;76053;42.682;23.286;2024-03-02T01:31:55;94186.25;;;23.82;65.48
50342;BME280;76053;42.682;23.286;2024-03-02T01:34:56;94180.81;;;23.82;65.50
50342;BME280;76053;42.682;23.286;2024-03-02T01:37:56;94181.56;;;23.83;65.48
50342;BME280;76053;42.682;23.286;2024-03-02T01:40:57;94189.44;;;23.81;65.58
50342;BME280;76053;42.682;23.286;2024-03-02T01:43:57;94189.09;;;23.79;65.53
50342;BME280;76053;42.682;23.286;2024-03-02T01:46:58;94194.19;;;23.77;65.69
50342;BME280;76053;42.682;23.286;2024-03-02T01:49:58;94183.28;;;23.77;65.86
50342;BME280;76053;42.682;23.286;2024-03-02T01:53:00;94181.31;;;23.77;65.78
50342;BME280;76053;42.682;23.286;2024-03-02T01:56:00;94181.31;;;23.77;65.68
50342;BME280;76053;42.682;23.286;2024-03-02T01:59:01;94175.84;;;23.77;65.63
50342;BME280;76053;42.682;23.286;2024-03-02T02:02:01;94186.00;;;23.77;65.49
50342;BME280;76053;42.682;23.286;2024-03-02T02:05:02;94186.34;;;23.79;65.60
50342;BME280;76053;42.682;23.286;2024-03-02T02:08:03;94178.59;;;23.77;65.48
50342;BME280;76053;42.682;23.286;2024-03-02T02:11:04;94184.81;;;23.78;65.69
50342;BME280;76053;42.682;23.286;2024-03-02T02:14:06;94181.31;;;23.77;65.77
50342;BME280;76053;42.682;23.286;2024-03-02T02:17:06;94181.31;;;23.77;65.69
50342;BME280;76053;42.682;23.286;2024-03-02T02:20:07;94182.50;;;23.76;65.65
50342;BME280;76053;42.682;23.286;2024-03-02T02:23:07;94184.03;;;23.77;65.75
50342;BME280;76053;42.682;23.286;2024-03-02T02:26:08;94191.47;;;23.77;65.55
50342;BME280;76053;42.682;23.286;2024-03-02T02:29:08;94177.81;;;23.77;65.94
50342;BME280;76053;42.682;23.286;2024-03-02T02:32:09;94181.75;;;23.76;65.87
50342;BME280;76053;42.682;23.286;2024-03-02T02:35:09;94175.53;;;23.75;65.88
50342;BME280;76053;42.682;23.286;2024-03-02T02:38:09;94181.41;;;23.74;65.92
50342;BME280;76053;42.682;23.286;2024-03-02T02:41:10;94187.63;;;23.74;65.95
50342;BME280;76053;42.682;23.286;2024-03-02T02:44:10;94177.13;;;23.73;66.18
50342;BME280;76053;42.682;23.286;2024-03-02T02:47:11;94188.03;;;23.73;65.90
50342;BME280;76053;42.682;23.286;2024-03-02T02:50:12;94184.53;;;23.72;65.82
50342;BME280;76053;42.682;23.286;2024-03-02T02:53:12;94190.78;;;23.73;65.88
50342;BME280;76053;42.682;23.286;2024-03-02T02:56:12;94185.00;;;23.71;65.98
50342;BME280;76053;42.682;23.286;2024-03-02T02:59:13;94186.94;;;23.70;65.83
50342;BME280;76053;42.682;23.286;2024-03-02T03:02:13;94190.09;;;23.69;66.02
50342;BME280;76053;42.682;23.286;2024-03-02T03:05:14;94186.19;;;23.70;65.89
50342;BME280;76053;42.682;23.286;2024-03-02T03:08:15;94181.91;;;23.69;66.16
50342;BME280;76053;42.682;23.286;2024-03-02T03:11:15;94194.78;;;23.68;66.02
50342;BME280;76053;42.682;23.286;2024-03-02T03:14:16;94188.56;;;23.68;66.06
50342;BME280;76053;42.682;23.286;2024-03-02T03:17:16;94190.50;;;23.67;66.06
50342;BME280;76053;42.682;23.286;2024-03-02T03:20:16;94194.44;;;23.66;66.32
50342;BME280;76053;42.682;23.286;2024-03-02T03:23:17;94186.69;;;23.65;65.96
50342;BME280;76053;42.682;23.286;2024-03-02T03:26:17;94184.72;;;23.65;66.34
50342;BME280;76053;42.682;23.286;2024-03-02T03:29:17;94183.19;;;23.64;66.36
50342;BME280;76053;42.682;23.286;2024-03-02T03:32:18;94192.56;;;23.63;66.19
50342;BME280;76053;42.682;23.286;2024-03-02T03:35:18;94192.97;;;23.62;66.29
50342;BME280;76053;42.682;23.286;2024-03-02T03:38:19;94189.50;;;23.61;66.27
50342;BME280;76053;42.682;23.286;2024-03-02T03:41:19;94188.72;;;23.61;66.50
50342;BME280;76053;42.682;23.286;2024-03-02T03:44:19;94189.50;;;23.61;66.57
50342;BME280;76053;42.682;23.286;2024-03-02T03:47:20;94190.69;;;23.60;66.20
50342;BME280;76053;42.682;23.286;2024-03-02T03:50:20;94187.97;;;23.60;66.28
50342;BME280;76053;42.682;23.286;2024-03-02T03:53:20;94186.00;;;23.61;66.39
50342;BME280;76053;42.682;23.286;2024-03-02T03:56:21;94192.22;;;23.61;66.44
50342;BME280;76053;42.682;23.286;2024-03-02T03:59:21;94186.00;;;23.61;66.27
50342;BME280;76053;42.682;23.286;2024-03-02T04:02:22;94179.78;;;23.60;66.37
50342;BME280;76053;42.682;23.286;2024-03-02T04:05:22;94192.66;;;23.59;66.32
50342;BME280;76053;42.682;23.286;2024-03-02T04:08:22;94187.97;;;23.60;66.40
50342;BME280;76053;42.682;23.286;2024-03-02T04:11:23;94184.47;;;23.59;66.33
50342;BME280;76053;42.682;23.286;2024-03-02T04:14:23;94188.38;;;23.58;66.30
50342;BME280;76053;42.682;23.286;2024-03-02T04:17:24;94189.16;;;23.59;66.27
50342;BME280;76053;42.682;23.286;2024-03-02T04:20:24;94185.66;;;23.58;66.33
50342;BME280;76053;42.682;23.286;2024-03-02T04:23:27;94182.16;;;23.58;66.66
50342;BME280;76053;42.682;23.286;2024-03-02T04:26:28;94184.88;;;23.58;66.42
50342;BME280;76053;42.682;23.286;2024-03-02T04:29:28;94185.28;;;23.56;66.59
50342;BME280;76053;42.682;23.286;2024-03-02T04:32:29;94187.28;;;23.56;66.34
50342;BME280;76053;42.682;23.286;2024-03-02T04:35:29;94186.06;;;23.57;66.51
50342;BME280;76053;42.682;23.286;2024-03-02T04:38:29;94195.78;;;23.58;66.66
50342;BME280;76053;42.682;23.286;2024-03-02T04:41:30;94200.06;;;23.59;66.45
50342;BME280;76053;42.682;23.286;2024-03-02T04:44:30;94188.38;;;23.58;66.69
50342;BME280;76053;42.682;23.286;2024-03-02T04:47:30;94201.16;;;23.62;66.57
50342;BME280;76053;42.682;23.286;2024-03-02T04:50:31;94198.78;;;23.64;66.76
50342;BME280;76053;42.682;23.286;2024-03-02T04:53:31;94205.78;;;23.65;66.65
50342;BME280;76053;42.682;23.286;2024-03-02T04:56:32;94202.28;;;23.64;66.83
50342;BME280;76053;42.682;23.286;2024-03-02T04:59:32;94207.31;;;23.66;66.76
50342;BME280;76053;42.682;23.286;2024-03-02T05:02:32;94204.94;;;23.68;66.99
50342;BME280;76053;42.682;23.286;2024-03-02T05:05:33;94205.69;;;23.68;67.05
50342;BME280;76053;42.682;23.286;2024-03-02T05:08:33;94208.41;;;23.68;67.03
50342;BME280;76053;42.682;23.286;2024-03-02T05:11:34;94216.53;;;23.72;66.99
50342;BME280;76053;42.682;23.286;2024-03-02T05:14:35;94208.34;;;23.72;66.91
50342;BME280;76053;42.682;23.286;2024-03-02T05:17:36;94212.19;;;23.74;66.86
50342;BME280;76053;42.682;23.286;2024-03-02T05:20:36;94216.03;;;23.77;66.91
50342;BME280;76053;42.682;23.286;2024-03-02T05:23:37;94221.91;;;23.75;66.97
50342;BME280;76053;42.682;23.286;2024-03-02T05:26:37;94223.44;;;23.76;67.22
50342;BME280;76053;42.682;23.286;2024-03-02T05:29:38;94219.97;;;23.76;67.20
50342;BME280;76053;42.682;23.286;2024-03-02T05:32:38;94228.16;;;23.76;67.09
50342;BME280;76053;42.682;23.286;2024-03-02T05:35:39;94233.16;;;23.77;67.28
50342;BME280;76053;42.682;23.286;2024-03-02T05:38:39;94235.22;;;23.73;67.42
50342;BME280;76053;42.682;23.286;2024-03-02T05:41:39;94232.47;;;23.73;67.27
50342;BME280;76053;42.682;23.286;2024-03-02T05:44:40;94246.47;;;23.75;67.17
50342;BME280;76053;42.682;23.286;2024-03-02T05:47:40;94242.97;;;23.75;67.08
50342;BME280;76053;42.682;23.286;2024-03-02T05:50:41;94242.97;;;23.75;67.39
50342;BME280;76053;42.682;23.286;2024-03-02T05:53:41;94242.22;;;23.74;67.28
50342;BME280;76053;42.682;23.286;2024-03-02T05:56:41;94240.25;;;23.75;67.35
50342;BME280;76053;42.682;23.286;2024-03-02T05:59:42;94246.91;;;23.74;67.34
50342;BME280;76053;42.682;23.286;2024-03-02T06:02:43;94246.03;;;23.77;67.99
50342;BME280;76053;42.682;23.286;2024-03-02T06:05:43;94244.44;;;23.79;67.91
50342;BME280;76053;42.682;23.286;2024-03-02T06:08:43;94247.94;;;23.80;67.66
50342;BME280;76053;42.682;23.286;2024-03-02T06:11:44;94243.66;;;23.79;67.52
50342;BME280;76053;42.682;23.286;2024-03-02T06:14:44;94244.44;;;23.79;67.35
50342;BME280;76053;42.682;23.286;2024-03-02T06:17:44;94247.16;;;23.79;67.45
50342;BME280;76053;42.682;23.286;2024-03-02T06:20:45;94262.25;;;23.28;61.57
50342;BME280;76053;42.682;23.286;2024-03-02T06:23:45;94262.91;;;23.16;64.07
50342;BME280;76053;42.682;23.286;2024-03-02T06:26:46;94259.44;;;23.12;64.36
50342;BME280;76053;42.682;23.286;2024-03-02T06:29:46;94266.84;;;23.11;64.03
50342;BME280;76053;42.682;23.286;2024-03-02T06:32:46;94264.56;;;23.10;63.66
50342;BME280;76053;42.682;23.286;2024-03-02T06:35:47;94264.97;;;23.08;63.23
50342;BME280;76053;42.682;23.286;2024-03-02T06:38:47;94267.34;;;23.06;63.01
50342;BME280;76053;42.682;23.286;2024-03-02T06:41:48;94269.72;;;23.04;62.59
50342;BME280;76053;42.682;23.286;2024-03-02T06:44:48;94273.28;;;23.01;62.41
50342;BME280;76053;42.682;23.286;2024-03-02T06:47:48;94281.91;;;23.00;62.10
50342;BME280;76053;42.682;23.286;2024-03-02T06:50:49;94279.97;;;22.97;61.64
50342;BME280;76053;42.682;23.286;2024-03-02T06:53:50;94280.81;;;22.94;61.57
50342;BME280;76053;42.682;23.286;2024-03-02T06:56:50;94279.72;;;22.91;61.27
50342;BME280;76053;42.682;23.286;2024-03-02T06:59:51;94284.81;;;22.89;60.95
50342;BME280;76053;42.682;23.286;2024-03-02T07:02:51;94284.88;;;22.86;60.82
50342;BME280;76053;42.682;23.286;2024-03-02T07:05:52;94286.47;;;22.83;60.36
50342;BME280;76053;42.682;23.286;2024-03-02T07:08:52;94284.59;;;22.80;60.53
50342;BME280;76053;42.682;23.286;2024-03-02T07:11:53;94288.13;;;22.77;60.04
50342;BME280;76053;42.682;23.286;2024-03-02T07:14:53;94287.03;;;22.74;59.97
50342;BME280;76053;42.682;23.286;2024-03-02T07:17:54;94290.16;;;22.73;59.92
50342;BME280;76053;42.682;23.286;2024-03-02T07:20:54;94289.41;;;22.69;59.67
50342;BME280;76053;42.682;23.286;2024-03-02T07:23:55;94288.66;;;22.68;59.60
50342;BME280;76053;42.682;23.286;2024-03-02T07:26:55;94289.50;;;22.65;59.71
50342;BME280;76053;42.682;23.286;2024-03-02T07:29:55;94296.53;;;22.63;59.42
50342;BME280;76053;42.682;23.286;2024-03-02T07:32:56;94293.03;;;22.62;59.13
50342;BME280;76053;42.682;23.286;2024-03-02T07:35:57;94302.81;;;22.60;59.06
50342;BME280;76053;42.682;23.286;2024-03-02T07:38:57;94307.91;;;22.58;58.99
50342;BME280;76053;42.682;23.286;2024-03-02T07:41:59;94309.50;;;22.55;58.84
50342;BME280;76053;42.682;23.286;2024-03-02T07:45:00;94309.91;;;22.54;58.77
50342;BME280;76053;42.682;23.286;2024-03-02T07:48:00;94308.38;;;22.53;58.71
50342;BME280;76053;42.682;23.286;2024-03-02T07:51:01;94312.69;;;22.50;58.85
50342;BME280;76053;42.682;23.286;2024-03-02T07:54:01;94308.06;;;22.47;58.46
50342;BME280;76053;42.682;23.286;2024-03-02T07:57:03;94310.03;;;22.47;58.69
50342;BME280;76053;42.682;23.286;2024-03-02T08:00:03;94314.34;;;22.44;58.56
50342;BME280;76053;42.682;23.286;2024-03-02T08:03:04;94312.03;;;22.43;58.33
50342;BME280;76053;42.682;23.286;2024-03-02T08:06:04;94317.91;;;22.41;58.47
50342;BME280;76053;42.682;23.286;2024-03-02T08:09:05;94322.59;;;22.41;58.19
50342;BME280;76053;42.682;23.286;2024-03-02T08:12:05;94325.72;;;22.39;58.16
50342;BME280;76053;42.682;23.286;2024-03-02T08:15:06;94320.34;;;22.36;58.46
50342;BME280;76053;42.682;23.286;2024-03-02T08:18:07;94325.00;;;22.35;58.00
50342;BME280;76053;42.682;23.286;2024-03-02T08:21:07;94322.28;;;22.35;58.39
50342;BME280;76053;42.682;23.286;2024-03-02T08:24:07;94326.19;;;22.34;58.04
50342;BME280;76053;42.682;23.286;2024-03-02T08:27:08;94323.09;;;22.32;58.04
50342;BME280;76053;42.682;23.286;2024-03-02T08:30:09;94318.84;;;22.31;57.92
50342;BME280;76053;42.682;23.286;2024-03-02T08:33:09;94322.34;;;22.31;57.97
50342;BME280;76053;42.682;23.286;2024-03-02T08:36:10;94312.63;;;22.30;57.56
50342;BME280;76053;42.682;23.286;2024-03-02T08:39:10;94313.03;;;22.29;57.61
50342;BME280;76053;42.682;23.286;2024-03-02T08:42:11;94321.19;;;22.29;57.62
50342;BME280;76053;42.682;23.286;2024-03-02T08:45:11;94316.16;;;22.27;57.76
50342;BME280;76053;42.682;23.286;2024-03-02T08:48:12;94318.09;;;22.27;57.71
50342;BME280;76053;42.682;23.286;2024-03-02T08:51:12;94321.59;;;22.27;57.67
50342;BME280;76053;42.682;23.286;2024-03-02T08:54:12;94323.94;;;22.29;57.87
50342;BME280;76053;42.682;23.286;2024-03-02T08:57:13;94325.47;;;22.30;57.38
50342;BME280;76053;42.682;23.286;2024-03-02T09:00:14;94323.09;;;22.32;57.40
50342;BME280;76053;42.682;23.286;2024-03-02T09:03:14;94318.78;;;22.35;57.63
50342;BME280;76053;42.682;23.286;2024-03-02T09:06:15;94314.81;;;22.39;57.08
50342;BME280;76053;42.682;23.286;2024-03-02T09:09:15;94323.34;;;22.41;57.32
50342;BME280;76053;42.682;23.286;2024-03-02T09:12:16;94326.44;;;22.43;57.07
50342;BME280;76053;42.682;23.286;2024-03-02T09:15:16;94328.34;;;22.46;56.92
50342;BME280;76053;42.682;23.286;2024-03-02T09:18:17;94326.34;;;22.47;56.85
50342;BME280;76053;42.682;23.286;2024-03-02T09:21:17;94324.41;;;22.47;56.90
50342;BME280;76053;42.682;23.286;2024-03-02T09:24:17;94330.22;;;22.49;56.78
50342;BME280;76053;42.682;23.286;2024-03-02T09:27:18;94330.63;;;22.48;56.98
50342;BME280;76053;42.682;23.286;2024-03-02T09:30:18;94332.94;;;22.49;56.65
50342;BME280;76053;42.682;23.286;2024-03-02T09:33:18;94336.06;;;22.48;56.92
50342;BME280;76053;42.682;23.286;2024-03-02T09:36:22;94337.69;;;22.45;56.67
50342;BME280;76053;42.682;23.286;2024-03-02T09:39:23;94336.53;;;22.43;56.77
50342;BME280;76053;42.682;23.286;2024-03-02T09:42:24;94346.31;;;22.40;56.55
50342;BME280;76053;42.682;23.286;2024-03-02T09:45:25;94337.44;;;22.36;56.92
50342;BME280;76053;42.682;23.286;2024-03-02T09:48:25;94337.84;;;22.35;56.58
50342;BME280;76053;42.682;23.286;2024-03-02T09:51:26;94336.72;;;22.32;57.00
50342;BME280;76053;42.682;23.286;2024-03-02T09:54:26;94335.59;;;22.29;56.81
50342;BME280;76053;42.682;23.286;2024-03-02T09:57:27;94337.94;;;22.27;56.93
50342;BME280;76053;42.682;23.286;2024-03-02T10:00:27;94339.16;;;22.26;56.86
50342;BME280;76053;42.682;23.286;2024-03-02T10:03:28;94340.72;;;22.24;57.08
50342;BME280;76053;42.682;23.286;2024-03-02T10:06:29;94343.84;;;22.22;56.73
50342;BME280;76053;42.682;23.286;2024-03-02T10:09:30;94342.34;;;22.21;57.11
50342;BME280;76053;42.682;23.286;2024-03-02T10:12:30;94344.69;;;22.19;57.05
50342;BME280;76053;42.682;23.286;2024-03-02T10:15:30;94336.91;;;22.18;56.79
50342;BME280;76053;42.682;23.286;2024-03-02T10:18:31;94338.94;;;22.14;57.05
50342;BME280;76053;42.682;23.286;2024-03-02T10:21:31;94333.13;;;22.12;56.32
50342;BME280;76053;42.682;23.286;2024-03-02T10:24:43;94342.50;;;22.07;56.64
50342;BME280;76053;42.682;23.286;2024-03-02T10:27:44;94331.63;;;22.07;56.49
50342;BME280;76053;42.682;23.286;2024-03-02T10:30:47;94337.50;;;22.06;56.47
50342;BME280;76053;42.682;23.286;2024-03-02T10:33:48;94335.59;;;22.03;56.51
50342;BME280;76053;42.682;23.286;2024-03-02T10:36:49;94344.19;;;22.01;56.63
50342;BME280;76053;42.682;23.286;2024-03-02T10:39:52;94330.19;;;21.99;56.54
50342;BME280;76053;42.682;23.286;2024-03-02T10:42:52;94336.03;;;21.98;56.60
50342;BME280;76053;42.682;23.286;2024-03-02T10:45:54;94331.03;;;21.96;56.49
50342;BME280;76053;42.682;23.286;2024-03-02T10:48:57;94326.34;;;21.97;56.48
50342;BME280;76053;42.682;23.286;2024-03-02T10:52:01;94330.25;;;21.96;56.19
50342;BME280;76053;42.682;23.286;2024-03-02T10:55:02;94322.50;;;21.94;56.42
50342;BME280;76053;42.682;23.286;2024-03-02T10:58:04;94319.38;;;21.96;56.10
50342;BME280;76053;42.682;23.286;2024-03-02T11:01:05;94327.16;;;21.94;56.35
50342;BME280;76053;42.682;23.286;2024-03-02T11:04:09;94321.72;;;21.94;56.38
50342;BME280;76053;42.682;23.286;2024-03-02T11:07:11;94317.41;;;21.92;56.43
50342;BME280;76053;42.682;23.286;2024-03-02T11:10:13;94317.41;;;21.92;56.03
50342;BME280;76053;42.682;23.286;2024-03-02T11:13:14;94318.19;;;21.93;56.44
50342;BME280;76053;42.682;23.286;2024-03-02T11:19:30;94311.63;;;21.90;56.39
50342;BME280;76053;42.682;23.286;2024-03-02T11:22:31;94313.22;;;21.88;56.43
50342;BME280;76053;42.682;23.286;2024-03-02T11:25:32;94317.09;;;21.87;56.18
50342;BME280;76053;42.682;23.286;2024-03-02T11:28:35;94307.81;;;21.84;55.90
50342;BME280;76053;42.682;23.286;2024-03-02T11:32:03;94312.19;;;21.78;56.10
50342;BME280;76053;42.682;23.286;2024-03-02T11:35:03;94306.28;;;21.83;55.99
50342;BME280;76053;42.682;23.286;2024-03-02T11:38:04;94300.03;;;21.86;56.10
50342;BME280;76053;42.682;23.286;2024-03-02T11:41:08;94308.53;;;21.88;56.31
50342;BME280;76053;42.682;23.286;2024-03-02T11:44:09;94310.50;;;21.88;56.24
50342;BME280;76053;42.682;23.286;2024-03-02T11:47:11;94306.59;;;21.89;56.17
50342;BME280;76053;42.682;23.286;2024-03-02T11:50:12;94314.34;;;21.90;56.46
50342;BME280;76053;42.682;23.286;2024-03-02T11:53:12;94309.31;;;21.89;56.23
50342;BME280;76053;42.682;23.286;2024-03-02T11:56:13;94310.47;;;21.92;55.95
50342;BME280;76053;42.682;23.286;2024-03-02T11:59:14;94302.28;;;21.92;55.95
50342;BME280;76053;42.682;23.286;2024-03-02T12:02:21;94303.47;;;21.90;56.14
50342;BME280;76053;42.682;23.286;2024-03-02T12:05:22;94303.81;;;21.92;56.20
50342;BME280;76053;42.682;23.286;2024-03-02T12:08:23;94305.03;;;21.92;56.37
50342;BME280;76053;42.682;23.286;2024-03-02T12:11:23;94300.75;;;21.90;56.34
50342;BME280;76053;42.682;23.286;2024-03-02T12:14:23;94308.13;;;21.90;56.16
50342;BME280;76053;42.682;23.286;2024-03-02T12:17:24;94305.41;;;21.90;56.24
50342;BME280;76053;42.682;23.286;2024-03-02T12:20:25;94300.75;;;21.90;56.25
50342;BME280;76053;42.682;23.286;2024-03-02T12:23:26;94300.38;;;21.88;56.10
50342;BME280;76053;42.682;23.286;2024-03-02T12:26:26;94305.81;;;21.88;55.71
50342;BME280;76053;42.682;23.286;2024-03-02T12:29:27;94300.38;;;21.88;55.74
50342;BME280;76053;42.682;23.286;2024-03-02T12:32:27;94301.56;;;21.87;55.70
50342;BME280;76053;42.682;23.286;2024-03-02T12:35:27;94304.28;;;21.87;55.53
50342;BME280;76053;42.682;23.286;2024-03-02T12:38:28;94303.94;;;21.85;56.14
50342;BME280;76053;42.682;23.286;2024-03-02T12:41:28;94309.38;;;21.85;55.85
50342;BME280;76053;42.682;23.286;2024-03-02T12:44:28;94300.44;;;21.85;56.00
50342;BME280;76053;42.682;23.286;2024-03-02T12:47:29;94303.16;;;21.85;55.91
50342;BME280;76053;42.682;23.286;2024-03-02T12:50:30;94302.38;;;21.84;55.70
50342;BME280;76053;42.682;23.286;2024-03-02T12:53:30;94300.84;;;21.83;55.95
50342;BME280;76053;42.682;23.286;2024-03-02T12:56:31;94305.50;;;21.83;55.73
50342;BME280;76053;42.682;23.286;2024-03-02T12:59:32;94306.34;;;21.80;55.75
50342;BME280;76053;42.682;23.286;2024-03-02T13:02:32;94307.91;;;21.77;55.58
50342;BME280;76053;42.682;23.286;2024-03-02T13:05:33;94317.28;;;21.76;55.49
50342;BME280;76053;42.682;23.286;2024-03-02T13:08:33;94313.41;;;21.74;55.62
50342;BME280;76053;42.682;23.286;2024-03-02T13:11:34;94310.31;;;21.72;55.36
50342;BME280;76053;42.682;23.286;2024-03-02T13:14:35;94308.03;;;21.70;55.87
50342;BME280;76053;42.682;23.286;2024-03-02T13:17:35;94311.53;;;21.67;55.40
50342;BME280;76053;42.682;23.286;2024-03-02T13:20:36;94311.97;;;21.66;55.77
50342;BME280;76053;42.682;23.286;2024-03-02T13:23:36;94315.50;;;21.63;55.77
50342;BME280;76053;42.682;23.286;2024-03-02T13:26:37;94320.16;;;21.62;55.73
50342;BME280;76053;42.682;23.286;2024-03-02T13:29:37;94317.09;;;21.60;55.59
50342;BME280;76053;42.682;23.286;2024-03-02T13:32:37;94321.75;;;21.60;55.35
50342;BME280;76053;42.682;23.286;2024-03-02T13:35:38;94318.66;;;21.58;55.32
50342;BME280;76053;42.682;23.286;2024-03-02T13:38:38;94320.59;;;21.57;55.76
50342;BME280;76053;42.682;23.286;2024-03-02T13:41:38;94320.25;;;21.55;55.75
50342;BME280;76053;42.682;23.286;2024-03-02T13:44:39;94330.38;;;21.55;55.46
50342;BME280;76053;42.682;23.286;2024-03-02T13:47:40;94324.56;;;21.53;55.51
50342;BME280;76053;42.682;23.286;2024-03-02T13:50:40;94324.22;;;21.51;55.35
50342;BME280;76053;42.682;23.286;2024-03-02T13:53:41;94335.09;;;21.51;55.74
50342;BME280;76053;42.682;23.286;2024-03-02T13:56:41;94328.50;;;21.48;55.33
50342;BME280;76053;42.682;23.286;2024-03-02T13:59:42;94337.44;;;21.48;55.27
50342;BME280;76053;42.682;23.286;2024-03-02T14:02:43;94333.59;;;21.46;55.63
50342;BME280;76053;42.682;23.286;2024-03-02T14:05:43;94336.31;;;21.46;55.55
50342;BME280;76053;42.682;23.286;2024-03-02T14:08:44;94333.59;;;21.46;55.43
50342;BME280;76053;42.682;23.286;2024-03-02T14:11:44;94342.16;;;21.44;55.63
50342;BME280;76053;42.682;23.286;2024-03-02T14:14:44;94341.38;;;21.44;55.57
50342;BME280;76053;42.682;23.286;2024-03-02T14:17:45;94346.81;;;21.44;55.23
50342;BME280;76053;42.682;23.286;2024-03-02T14:20:46;94342.16;;;21.44;55.14
50342;BME280;76053;42.682;23.286;2024-03-02T14:23:46;94338.66;;;21.44;55.30
50342;BME280;76053;42.682;23.286;2024-03-02T14:26:46;94344.09;;;21.44;55.42
50342;BME280;76053;42.682;23.286;2024-03-02T14:29:47;94348.34;;;21.45;55.05
50342;BME280;76053;42.682;23.286;2024-03-02T14:32:47;94339.44;;;21.44;55.04
50342;BME280;76053;42.682;23.286;2024-03-02T14:35:48;94343.69;;;21.45;55.49
50342;BME280;76053;42.682;23.286;2024-03-02T14:38:48;94342.09;;;21.48;55.12
50342;BME280;76053;42.682;23.286;2024-03-02T14:41:49;94341.69;;;21.50;55.38
50342;BME280;76053;42.682;23.286;2024-03-02T14:44:49;94347.50;;;21.52;54.97
50342;BME280;76053;42.682;23.286;2024-03-02T14:47:50;94334.66;;;21.52;54.94
50342;BME280;76053;42.682;23.286;2024-03-02T14:50:51;94334.25;;;21.54;55.23
50342;BME280;76053;42.682;23.286;2024-03-02T14:53:52;94348.25;;;21.52;55.37
50342;BME280;76053;42.682;23.286;2024-03-02T14:56:52;94351.75;;;21.53;55.39
50342;BME280;76053;42.682;23.286;2024-03-02T14:59:52;94356.41;;;21.52;55.01
50342;BME280;76053;42.682;23.286;2024-03-02T15:02:53;94361.09;;;21.52;55.23
50342;BME280;76053;42.682;23.286;2024-03-02T15:05:53;94351.41;;;21.51;55.27
50342;BME280;76053;42.682;23.286;2024-03-02T15:08:54;94357.25;;;21.49;54.81
50342;BME280;76053;42.682;23.286;2024-03-02T15:11:54;94359.97;;;21.49;55.11
50342;BME280;76053;42.682;23.286;2024-03-02T15:14:54;94358.41;;;21.48;54.88
50342;BME280;76053;42.682;23.286;2024-03-02T15:17:55;94362.72;;;21.45;55.31
50342;BME280;76053;42.682;23.286;2024-03-02T15:20:55;94365.06;;;21.43;54.98
50342;BME280;76053;42.682;23.286;2024-03-02T15:23:56;94357.31;;;21.42;55.28
50342;BME280;76053;42.682;23.286;2024-03-02T15:26:56;94370.91;;;21.42;55.06
50342;BME280;76053;42.682;23.286;2024-03-02T15:29:56;94367.84;;;21.40;54.92
50342;BME280;76053;42.682;23.286;2024-03-02T15:32:57;94362.03;;;21.38;55.02
50342;BME280;76053;42.682;23.286;2024-03-02T15:35:58;94364.75;;;21.38;54.98
50342;BME280;76053;42.682;23.286;2024-03-02T15:38:59;94368.66;;;21.37;55.11
50342;BME280;76053;42.682;23.286;2024-03-02T15:41:59;94367.88;;;21.36;55.33
50342;BME280;76053;42.682;23.286;2024-03-02T15:45:00;94370.22;;;21.34;55.13
50342;BME280;76053;42.682;23.286;2024-03-02T15:48:00;94371.41;;;21.33;55.10